sensor_id;sensor_type;location;lat;lon;timestamp;P1;durP1;ratioP1;P2;durP2;ratioP2
57247;SDS011;55809;46.618;10.764;2023-12-20T00:02:02;3.30;;;1.25;;
57247;SDS011;55809;46.618;10.764;2023-12-20T00:04:31;3.20;;;0.95;;
57247;SDS011;55809;46.618;10.764;2023-12-20T00:06:59;2.88;;;1.27;;
57247;SDS011;55809;46.618;10.764;2023-12-20T00:09:28;4.60;;;1.08;;
57247;SDS011;55809;46.618;10.764;2023-12-20T00:11:59;4.55;;;1.30;;
57247;SDS011;55809;46.618;10.764;2023-12-20T00:14:28;2.28;;;0.85;;
57247;SDS011;55809;46.618;10.764;2023-12-20T00:16:56;2.05;;;0.70;;
57247;SDS011;55809;46.618;10.764;2023-12-20T00:19:27;2.38;;;0.75;;
57247;SDS011;55809;46.618;10.764;2023-12-20T00:21:57;1.35;;;0.55;;
57247;SDS011;55809;46.618;10.764;2023-12-20T00:24:26;2.95;;;0.80;;
57247;SDS011;55809;46.618;10.764;2023-12-20T00:26:59;1.75;;;0.80;;
57247;SDS011;55809;46.618;10.764;2023-12-20T00:29:28;2.45;;;0.50;;
57247;SDS011;55809;46.618;10.764;2023-12-20T00:31:56;2.13;;;0.70;;
57247;SDS011;55809;46.618;10.764;2023-12-20T00:34:25;3.40;;;0.70;;
57247;SDS011;55809;46.618;10.764;2023-12-20T00:36:54;1.52;;;0.52;;
57247;SDS011;55809;46.618;10.764;2023-12-20T00:39:23;0.95;;;0.55;;
57247;SDS011;55809;46.618;10.764;2023-12-20T00:42:06;1.42;;;0.60;;
57247;SDS011;55809;46.618;10.764;2023-12-20T00:44:35;2.28;;;0.70;;
57247;SDS011;55809;46.618;10.764;2023-12-20T00:49:36;3.17;;;1.00;;
57247;SDS011;55809;46.618;10.764;2023-12-20T00:52:08;3.00;;;1.13;;
57247;SDS011;55809;46.618;10.764;2023-12-20T00:54:36;2.25;;;1.10;;
57247;SDS011;55809;46.618;10.764;2023-12-20T00:57:10;3.22;;;1.40;;
57247;SDS011;55809;46.618;10.764;2023-12-20T00:59:38;3.13;;;0.95;;
57247;SDS011;55809;46.618;10.764;2023-12-20T01:02:09;2.67;;;1.00;;
57247;SDS011;55809;46.618;10.764;2023-12-20T01:04:37;4.30;;;1.05;;
57247;SDS011;55809;46.618;10.764;2023-12-20T01:07:06;2.15;;;0.90;;
57247;SDS011;55809;46.618;10.764;2023-12-20T01:09:43;3.55;;;0.93;;
57247;SDS011;55809;46.618;10.764;2023-12-20T01:12:12;3.63;;;1.27;;
57247;SDS011;55809;46.618;10.764;2023-12-20T01:14:42;3.78;;;1.40;;
57247;SDS011;55809;46.618;10.764;2023-12-20T01:17:10;3.75;;;1.00;;
57247;SDS011;55809;46.618;10.764;2023-12-20T01:22:08;2.15;;;1.10;;
57247;SDS011;55809;46.618;10.764;2023-12-20T01:24:37;2.30;;;0.90;;
57247;SDS011;55809;46.618;10.764;2023-12-20T01:27:06;3.15;;;1.15;;
57247;SDS011;55809;46.618;10.764;2023-12-20T01:29:49;2.25;;;0.75;;
57247;SDS011;55809;46.618;10.764;2023-12-20T01:32:17;2.45;;;1.02;;
57247;SDS011;55809;46.618;10.764;2023-12-20T01:34:44;2.28;;;0.77;;
57247;SDS011;55809;46.618;10.764;2023-12-20T01:37:17;2.13;;;0.88;;
57247;SDS011;55809;46.618;10.764;2023-12-20T01:39:45;3.33;;;1.00;;
57247;SDS011;55809;46.618;10.764;2023-12-20T01:42:12;3.22;;;0.70;;
57247;SDS011;55809;46.618;10.764;2023-12-20T01:44:46;1.75;;;0.95;;
57247;SDS011;55809;46.618;10.764;2023-12-20T01:47:15;3.42;;;1.02;;
57247;SDS011;55809;46.618;10.764;2023-12-20T01:49:44;2.05;;;0.90;;
57247;SDS011;55809;46.618;10.764;2023-12-20T01:52:12;1.33;;;0.80;;
57247;SDS011;55809;46.618;10.764;2023-12-20T01:54:41;3.33;;;1.20;;
57247;SDS011;55809;46.618;10.764;2023-12-20T01:57:12;2.42;;;0.95;;
57247;SDS011;55809;46.618;10.764;2023-12-20T01:59:48;2.10;;;0.90;;
57247;SDS011;55809;46.618;10.764;2023-12-20T02:02:16;2.90;;;1.05;;
57247;SDS011;55809;46.618;10.764;2023-12-20T02:04:45;1.90;;;0.70;;
57247;SDS011;55809;46.618;10.764;2023-12-20T02:07:13;3.58;;;0.88;;
57247;SDS011;55809;46.618;10.764;2023-12-20T02:09:54;2.33;;;0.80;;
57247;SDS011;55809;46.618;10.764;2023-12-20T02:12:26;2.15;;;0.80;;
57247;SDS011;55809;46.618;10.764;2023-12-20T02:14:57;2.00;;;0.80;;
57247;SDS011;55809;46.618;10.764;2023-12-20T02:17:27;2.53;;;0.88;;
57247;SDS011;55809;46.618;10.764;2023-12-20T02:19:56;3.78;;;0.93;;
57247;SDS011;55809;46.618;10.764;2023-12-20T02:22:32;0.80;;;0.30;;
57247;SDS011;55809;46.618;10.764;2023-12-20T02:25:03;0.93;;;0.30;;
57247;SDS011;55809;46.618;10.764;2023-12-20T02:27:32;1.67;;;0.50;;
57247;SDS011;55809;46.618;10.764;2023-12-20T02:30:00;1.38;;;0.57;;
57247;SDS011;55809;46.618;10.764;2023-12-20T02:32:31;1.98;;;0.60;;
57247;SDS011;55809;46.618;10.764;2023-12-20T02:35:00;2.67;;;0.75;;
57247;SDS011;55809;46.618;10.764;2023-12-20T02:37:35;1.55;;;0.52;;
57247;SDS011;55809;46.618;10.764;2023-12-20T02:40:01;0.68;;;0.38;;
57247;SDS011;55809;46.618;10.764;2023-12-20T02:42:32;2.07;;;0.70;;
57247;SDS011;55809;46.618;10.764;2023-12-20T02:45:03;2.75;;;0.95;;
57247;SDS011;55809;46.618;10.764;2023-12-20T02:47:35;3.42;;;1.20;;
57247;SDS011;55809;46.618;10.764;2023-12-20T02:50:03;1.98;;;0.88;;
57247;SDS011;55809;46.618;10.764;2023-12-20T02:52:39;2.42;;;1.10;;
57247;SDS011;55809;46.618;10.764;2023-12-20T02:55:08;2.73;;;0.97;;
57247;SDS011;55809;46.618;10.764;2023-12-20T02:57:39;1.92;;;0.70;;
57247;SDS011;55809;46.618;10.764;2023-12-20T03:00:07;3.53;;;0.95;;
57247;SDS011;55809;46.618;10.764;2023-12-20T03:02:37;2.08;;;0.70;;
57247;SDS011;55809;46.618;10.764;2023-12-20T03:07:36;1.80;;;0.63;;
57247;SDS011;55809;46.618;10.764;2023-12-20T03:10:07;2.35;;;0.98;;
57247;SDS011;55809;46.618;10.764;2023-12-20T03:12:39;1.75;;;0.85;;
57247;SDS011;55809;46.618;10.764;2023-12-20T03:15:10;2.58;;;1.13;;
57247;SDS011;55809;46.618;10.764;2023-12-20T03:17:41;2.65;;;0.90;;
57247;SDS011;55809;46.618;10.764;2023-12-20T03:20:12;3.72;;;0.98;;
57247;SDS011;55809;46.618;10.764;2023-12-20T03:22:43;1.63;;;0.60;;
57247;SDS011;55809;46.618;10.764;2023-12-20T03:25:27;1.17;;;0.52;;
57247;SDS011;55809;46.618;10.764;2023-12-20T03:27:55;3.05;;;0.90;;
57247;SDS011;55809;46.618;10.764;2023-12-20T03:30:22;1.75;;;0.98;;
57247;SDS011;55809;46.618;10.764;2023-12-20T03:32:51;3.70;;;0.90;;
57247;SDS011;55809;46.618;10.764;2023-12-20T03:35:18;1.77;;;0.70;;
57247;SDS011;55809;46.618;10.764;2023-12-20T03:37:47;3.45;;;1.30;;
57247;SDS011;55809;46.618;10.764;2023-12-20T03:40:16;3.80;;;1.20;;
57247;SDS011;55809;46.618;10.764;2023-12-20T03:42:47;3.93;;;1.20;;
57247;SDS011;55809;46.618;10.764;2023-12-20T03:45:29;3.97;;;1.02;;
57247;SDS011;55809;46.618;10.764;2023-12-20T03:47:59;2.55;;;0.80;;
57247;SDS011;55809;46.618;10.764;2023-12-20T03:50:27;2.55;;;0.95;;
57247;SDS011;55809;46.618;10.764;2023-12-20T03:53:11;2.83;;;1.00;;
57247;SDS011;55809;46.618;10.764;2023-12-20T03:55:40;2.72;;;1.10;;
57247;SDS011;55809;46.618;10.764;2023-12-20T03:58:13;2.83;;;1.00;;
57247;SDS011;55809;46.618;10.764;2023-12-20T04:00:42;3.63;;;1.13;;
57247;SDS011;55809;46.618;10.764;2023-12-20T04:03:10;1.73;;;0.70;;
57247;SDS011;55809;46.618;10.764;2023-12-20T04:05:46;1.20;;;0.50;;
57247;SDS011;55809;46.618;10.764;2023-12-20T04:08:15;0.98;;;0.60;;
57247;SDS011;55809;46.618;10.764;2023-12-20T04:10:44;1.05;;;0.50;;
57247;SDS011;55809;46.618;10.764;2023-12-20T04:13:24;1.27;;;0.43;;
57247;SDS011;55809;46.618;10.764;2023-12-20T04:15:53;1.52;;;0.63;;
57247;SDS011;55809;46.618;10.764;2023-12-20T04:18:23;0.30;;;0.20;;
57247;SDS011;55809;46.618;10.764;2023-12-20T04:21:01;0.63;;;0.20;;
57247;SDS011;55809;46.618;10.764;2023-12-20T04:23:31;0.47;;;0.28;;
57247;SDS011;55809;46.618;10.764;2023-12-20T04:26:10;1.05;;;0.30;;
57247;SDS011;55809;46.618;10.764;2023-12-20T04:28:42;1.67;;;0.60;;
57247;SDS011;55809;46.618;10.764;2023-12-20T04:31:13;1.35;;;0.50;;
57247;SDS011;55809;46.618;10.764;2023-12-20T04:33:44;1.38;;;0.57;;
57247;SDS011;55809;46.618;10.764;2023-12-20T04:36:11;0.77;;;0.43;;
57247;SDS011;55809;46.618;10.764;2023-12-20T04:38:42;1.30;;;0.73;;
57247;SDS011;55809;46.618;10.764;2023-12-20T04:41:10;1.85;;;0.50;;
57247;SDS011;55809;46.618;10.764;2023-12-20T04:43:48;1.23;;;0.50;;
57247;SDS011;55809;46.618;10.764;2023-12-20T04:46:16;1.13;;;0.60;;
57247;SDS011;55809;46.618;10.764;2023-12-20T04:48:47;1.40;;;0.40;;
57247;SDS011;55809;46.618;10.764;2023-12-20T04:51:14;0.60;;;0.30;;
57247;SDS011;55809;46.618;10.764;2023-12-20T04:53:42;2.08;;;0.90;;
57247;SDS011;55809;46.618;10.764;2023-12-20T04:56:09;1.23;;;0.57;;
57247;SDS011;55809;46.618;10.764;2023-12-20T04:58:38;2.47;;;0.90;;
57247;SDS011;55809;46.618;10.764;2023-12-20T05:03:53;2.00;;;0.70;;
57247;SDS011;55809;46.618;10.764;2023-12-20T05:06:23;3.70;;;0.90;;
57247;SDS011;55809;46.618;10.764;2023-12-20T05:08:52;2.13;;;0.70;;
57247;SDS011;55809;46.618;10.764;2023-12-20T05:11:20;1.63;;;0.52;;
57247;SDS011;55809;46.618;10.764;2023-12-20T05:16:20;3.97;;;0.70;;
57247;SDS011;55809;46.618;10.764;2023-12-20T05:18:55;1.13;;;0.65;;
57247;SDS011;55809;46.618;10.764;2023-12-20T05:21:26;2.60;;;0.70;;
57247;SDS011;55809;46.618;10.764;2023-12-20T05:23:53;1.63;;;0.35;;
57247;SDS011;55809;46.618;10.764;2023-12-20T05:26:21;1.15;;;0.40;;
57247;SDS011;55809;46.618;10.764;2023-12-20T05:29:03;1.58;;;0.60;;
57247;SDS011;55809;46.618;10.764;2023-12-20T05:31:35;1.52;;;0.38;;
57247;SDS011;55809;46.618;10.764;2023-12-20T05:34:04;0.93;;;0.40;;
57247;SDS011;55809;46.618;10.764;2023-12-20T05:36:34;0.57;;;0.30;;
57247;SDS011;55809;46.618;10.764;2023-12-20T05:39:05;2.13;;;0.60;;
57247;SDS011;55809;46.618;10.764;2023-12-20T05:41:34;1.02;;;0.50;;
57247;SDS011;55809;46.618;10.764;2023-12-20T05:44:02;0.90;;;0.40;;
57247;SDS011;55809;46.618;10.764;2023-12-20T05:46:31;0.95;;;0.40;;
57247;SDS011;55809;46.618;10.764;2023-12-20T05:49:08;0.85;;;0.50;;
57247;SDS011;55809;46.618;10.764;2023-12-20T05:51:38;2.30;;;1.00;;
57247;SDS011;55809;46.618;10.764;2023-12-20T05:54:08;3.55;;;1.30;;
57247;SDS011;55809;46.618;10.764;2023-12-20T05:56:36;4.50;;;1.80;;
57247;SDS011;55809;46.618;10.764;2023-12-20T05:59:03;4.25;;;1.58;;
57247;SDS011;55809;46.618;10.764;2023-12-20T06:01:32;4.30;;;1.40;;
57247;SDS011;55809;46.618;10.764;2023-12-20T06:04:00;3.67;;;1.15;;
57247;SDS011;55809;46.618;10.764;2023-12-20T06:06:33;3.22;;;1.08;;
57247;SDS011;55809;46.618;10.764;2023-12-20T06:09:02;3.40;;;1.20;;
57247;SDS011;55809;46.618;10.764;2023-12-20T06:11:30;2.77;;;1.30;;
57247;SDS011;55809;46.618;10.764;2023-12-20T06:13:59;6.35;;;1.40;;
57247;SDS011;55809;46.618;10.764;2023-12-20T06:16:28;4.57;;;2.13;;
57247;SDS011;55809;46.618;10.764;2023-12-20T06:19:02;5.50;;;2.33;;
57247;SDS011;55809;46.618;10.764;2023-12-20T06:21:29;8.15;;;2.45;;
57247;SDS011;55809;46.618;10.764;2023-12-20T06:23:58;5.85;;;2.25;;
57247;SDS011;55809;46.618;10.764;2023-12-20T06:26:25;5.45;;;1.83;;
57247;SDS011;55809;46.618;10.764;2023-12-20T06:28:52;4.80;;;1.75;;
57247;SDS011;55809;46.618;10.764;2023-12-20T06:31:19;2.50;;;1.17;;
57247;SDS011;55809;46.618;10.764;2023-12-20T06:33:46;4.53;;;1.80;;
57247;SDS011;55809;46.618;10.764;2023-12-20T06:36:16;6.88;;;1.67;;
57247;SDS011;55809;46.618;10.764;2023-12-20T06:41:14;3.80;;;1.15;;
57247;SDS011;55809;46.618;10.764;2023-12-20T06:43:43;3.13;;;1.20;;
57247;SDS011;55809;46.618;10.764;2023-12-20T06:46:12;2.28;;;0.90;;
57247;SDS011;55809;46.618;10.764;2023-12-20T06:48:42;2.47;;;1.15;;
57247;SDS011;55809;46.618;10.764;2023-12-20T06:51:14;2.75;;;1.15;;
57247;SDS011;55809;46.618;10.764;2023-12-20T06:53:46;3.85;;;1.48;;
57247;SDS011;55809;46.618;10.764;2023-12-20T06:56:32;5.65;;;1.80;;
57247;SDS011;55809;46.618;10.764;2023-12-20T06:59:00;4.68;;;1.88;;
57247;SDS011;55809;46.618;10.764;2023-12-20T07:01:32;2.55;;;1.30;;
57247;SDS011;55809;46.618;10.764;2023-12-20T07:04:00;5.85;;;1.67;;
57247;SDS011;55809;46.618;10.764;2023-12-20T07:06:28;4.13;;;1.50;;
57247;SDS011;55809;46.618;10.764;2023-12-20T07:08:57;3.85;;;1.52;;
57247;SDS011;55809;46.618;10.764;2023-12-20T07:11:25;5.05;;;2.08;;
57247;SDS011;55809;46.618;10.764;2023-12-20T07:13:52;5.80;;;2.17;;
57247;SDS011;55809;46.618;10.764;2023-12-20T07:16:19;5.32;;;2.30;;
57247;SDS011;55809;46.618;10.764;2023-12-20T07:18:47;5.32;;;2.20;;
57247;SDS011;55809;46.618;10.764;2023-12-20T07:21:14;4.35;;;1.55;;
57247;SDS011;55809;46.618;10.764;2023-12-20T07:23:41;3.63;;;1.52;;
57247;SDS011;55809;46.618;10.764;2023-12-20T07:26:08;5.65;;;1.70;;
57247;SDS011;55809;46.618;10.764;2023-12-20T07:28:38;2.00;;;1.33;;
57247;SDS011;55809;46.618;10.764;2023-12-20T07:31:05;3.92;;;1.20;;
57247;SDS011;55809;46.618;10.764;2023-12-20T07:33:32;5.30;;;3.20;;
57247;SDS011;55809;46.618;10.764;2023-12-20T07:35:59;3.42;;;1.67;;
57247;SDS011;55809;46.618;10.764;2023-12-20T07:38:27;2.97;;;1.40;;
57247;SDS011;55809;46.618;10.764;2023-12-20T07:40:54;3.03;;;0.88;;
57247;SDS011;55809;46.618;10.764;2023-12-20T07:43:21;1.88;;;0.63;;
57247;SDS011;55809;46.618;10.764;2023-12-20T07:45:49;0.52;;;0.32;;
57247;SDS011;55809;46.618;10.764;2023-12-20T07:48:16;0.93;;;0.60;;
57247;SDS011;55809;46.618;10.764;2023-12-20T07:50:43;2.03;;;0.65;;
57247;SDS011;55809;46.618;10.764;2023-12-20T07:53:10;3.40;;;0.90;;
57247;SDS011;55809;46.618;10.764;2023-12-20T07:55:37;2.15;;;1.17;;
57247;SDS011;55809;46.618;10.764;2023-12-20T07:58:04;5.45;;;1.88;;
57247;SDS011;55809;46.618;10.764;2023-12-20T08:00:32;4.88;;;1.70;;
57247;SDS011;55809;46.618;10.764;2023-12-20T08:03:02;3.85;;;1.70;;
57247;SDS011;55809;46.618;10.764;2023-12-20T08:05:29;4.85;;;1.77;;
57247;SDS011;55809;46.618;10.764;2023-12-20T08:08:00;4.63;;;1.95;;
57247;SDS011;55809;46.618;10.764;2023-12-20T08:10:28;3.85;;;1.60;;
57247;SDS011;55809;46.618;10.764;2023-12-20T08:12:57;4.93;;;1.80;;
57247;SDS011;55809;46.618;10.764;2023-12-20T08:15:24;4.88;;;2.25;;
57247;SDS011;55809;46.618;10.764;2023-12-20T08:17:51;5.45;;;2.05;;
57247;SDS011;55809;46.618;10.764;2023-12-20T08:20:20;5.20;;;1.77;;
57247;SDS011;55809;46.618;10.764;2023-12-20T08:22:47;4.75;;;1.75;;
57247;SDS011;55809;46.618;10.764;2023-12-20T08:25:14;4.50;;;1.70;;
57247;SDS011;55809;46.618;10.764;2023-12-20T08:27:41;4.22;;;1.77;;
57247;SDS011;55809;46.618;10.764;2023-12-20T08:30:08;2.97;;;1.20;;
57247;SDS011;55809;46.618;10.764;2023-12-20T08:32:36;5.13;;;1.20;;
57247;SDS011;55809;46.618;10.764;2023-12-20T08:35:03;3.33;;;1.15;;
57247;SDS011;55809;46.618;10.764;2023-12-20T08:37:32;3.50;;;1.00;;
57247;SDS011;55809;46.618;10.764;2023-12-20T08:39:59;3.25;;;1.20;;
57247;SDS011;55809;46.618;10.764;2023-12-20T08:42:26;4.53;;;1.73;;
57247;SDS011;55809;46.618;10.764;2023-12-20T08:44:56;5.63;;;1.90;;
57247;SDS011;55809;46.618;10.764;2023-12-20T08:47:23;6.68;;;2.22;;
57247;SDS011;55809;46.618;10.764;2023-12-20T08:49:50;8.73;;;2.83;;
57247;SDS011;55809;46.618;10.764;2023-12-20T08:54:49;9.27;;;3.25;;
57247;SDS011;55809;46.618;10.764;2023-12-20T08:57:19;7.95;;;3.60;;
57247;SDS011;55809;46.618;10.764;2023-12-20T08:59:48;7.25;;;3.20;;
57247;SDS011;55809;46.618;10.764;2023-12-20T09:02:15;8.23;;;3.40;;
57247;SDS011;55809;46.618;10.764;2023-12-20T09:04:42;9.98;;;3.88;;
57247;SDS011;55809;46.618;10.764;2023-12-20T09:07:20;8.88;;;4.30;;
57247;SDS011;55809;46.618;10.764;2023-12-20T09:09:46;11.75;;;6.55;;
57247;SDS011;55809;46.618;10.764;2023-12-20T09:12:15;10.77;;;6.20;;
57247;SDS011;55809;46.618;10.764;2023-12-20T09:14:43;14.52;;;6.38;;
57247;SDS011;55809;46.618;10.764;2023-12-20T09:17:10;11.93;;;6.47;;
57247;SDS011;55809;46.618;10.764;2023-12-20T09:19:37;13.38;;;6.03;;
57247;SDS011;55809;46.618;10.764;2023-12-20T09:22:05;9.98;;;4.70;;
57247;SDS011;55809;46.618;10.764;2023-12-20T09:24:32;7.32;;;3.25;;
57247;SDS011;55809;46.618;10.764;2023-12-20T09:26:59;7.72;;;3.13;;
57247;SDS011;55809;46.618;10.764;2023-12-20T09:29:28;7.82;;;2.90;;
57247;SDS011;55809;46.618;10.764;2023-12-20T09:31:55;6.38;;;2.63;;
57247;SDS011;55809;46.618;10.764;2023-12-20T09:34:22;9.38;;;2.85;;
57247;SDS011;55809;46.618;10.764;2023-12-20T09:36:50;6.90;;;2.80;;
57247;SDS011;55809;46.618;10.764;2023-12-20T09:39:18;6.38;;;2.83;;
57247;SDS011;55809;46.618;10.764;2023-12-20T09:41:48;6.10;;;2.45;;
57247;SDS011;55809;46.618;10.764;2023-12-20T09:44:21;6.15;;;2.83;;
57247;SDS011;55809;46.618;10.764;2023-12-20T09:46:50;5.65;;;2.17;;
57247;SDS011;55809;46.618;10.764;2023-12-20T09:49:19;8.07;;;2.53;;
57247;SDS011;55809;46.618;10.764;2023-12-20T09:51:46;11.30;;;4.82;;
57247;SDS011;55809;46.618;10.764;2023-12-20T09:54:14;11.32;;;5.10;;
57247;SDS011;55809;46.618;10.764;2023-12-20T09:56:42;13.10;;;5.57;;
57247;SDS011;55809;46.618;10.764;2023-12-20T09:59:09;10.73;;;4.40;;
57247;SDS011;55809;46.618;10.764;2023-12-20T10:01:36;7.72;;;3.10;;
57247;SDS011;55809;46.618;10.764;2023-12-20T10:04:07;2.37;;;0.73;;
57247;SDS011;55809;46.618;10.764;2023-12-20T10:06:37;0.70;;;0.20;;
57247;SDS011;55809;46.618;10.764;2023-12-20T10:09:04;0.50;;;0.20;;
57247;SDS011;55809;46.618;10.764;2023-12-20T10:11:32;0.52;;;0.10;;
57247;SDS011;55809;46.618;10.764;2023-12-20T10:13:59;1.17;;;0.30;;
57247;SDS011;55809;46.618;10.764;2023-12-20T10:16:27;0.20;;;0.10;;
57247;SDS011;55809;46.618;10.764;2023-12-20T10:18:54;0.55;;;0.20;;
57247;SDS011;55809;46.618;10.764;2023-12-20T10:21:23;0.10;;;0.00;;
57247;SDS011;55809;46.618;10.764;2023-12-20T10:23:51;0.00;;;0.00;;
57247;SDS011;55809;46.618;10.764;2023-12-20T10:26:21;0.00;;;0.00;;
57247;SDS011;55809;46.618;10.764;2023-12-20T10:28:50;1.92;;;0.28;;
57247;SDS011;55809;46.618;10.764;2023-12-20T10:31:27;0.45;;;0.17;;
57247;SDS011;55809;46.618;10.764;2023-12-20T10:33:56;0.75;;;0.10;;
57247;SDS011;55809;46.618;10.764;2023-12-20T10:36:26;0.10;;;0.10;;
57247;SDS011;55809;46.618;10.764;2023-12-20T10:38:55;0.57;;;0.10;;
57247;SDS011;55809;46.618;10.764;2023-12-20T10:41:25;0.28;;;0.03;;
57247;SDS011;55809;46.618;10.764;2023-12-20T10:43:55;0.40;;;0.05;;
57247;SDS011;55809;46.618;10.764;2023-12-20T10:46:25;0.08;;;0.08;;
57247;SDS011;55809;46.618;10.764;2023-12-20T10:48:53;0.95;;;0.32;;
57247;SDS011;55809;46.618;10.764;2023-12-20T10:51:21;0.75;;;0.10;;
57247;SDS011;55809;46.618;10.764;2023-12-20T10:53:51;1.00;;;0.10;;
57247;SDS011;55809;46.618;10.764;2023-12-20T10:56:20;0.47;;;0.10;;
57247;SDS011;55809;46.618;10.764;2023-12-20T10:58:48;0.20;;;0.10;;
57247;SDS011;55809;46.618;10.764;2023-12-20T11:01:16;1.35;;;0.13;;
57247;SDS011;55809;46.618;10.764;2023-12-20T11:03:46;0.10;;;0.10;;
57247;SDS011;55809;46.618;10.764;2023-12-20T11:06:19;0.77;;;0.00;;
57247;SDS011;55809;46.618;10.764;2023-12-20T11:09:04;0.73;;;0.20;;
57247;SDS011;55809;46.618;10.764;2023-12-20T11:11:42;0.90;;;0.10;;
57247;SDS011;55809;46.618;10.764;2023-12-20T11:14:20;0.87;;;0.10;;
57247;SDS011;55809;46.618;10.764;2023-12-20T11:17:00;0.50;;;0.10;;
57247;SDS011;55809;46.618;10.764;2023-12-20T11:19:32;0.15;;;0.08;;
57247;SDS011;55809;46.618;10.764;2023-12-20T11:21:59;0.17;;;0.08;;
57247;SDS011;55809;46.618;10.764;2023-12-20T11:24:27;0.57;;;0.40;;
57247;SDS011;55809;46.618;10.764;2023-12-20T11:26:55;0.52;;;0.10;;
57247;SDS011;55809;46.618;10.764;2023-12-20T11:29:34;0.20;;;0.00;;
57247;SDS011;55809;46.618;10.764;2023-12-20T11:32:02;0.05;;;0.00;;
57247;SDS011;55809;46.618;10.764;2023-12-20T11:34:31;0.30;;;0.05;;
57247;SDS011;55809;46.618;10.764;2023-12-20T11:36:59;0.73;;;0.05;;
57247;SDS011;55809;46.618;10.764;2023-12-20T11:39:29;0.20;;;0.00;;
57247;SDS011;55809;46.618;10.764;2023-12-20T11:41:57;0.55;;;0.10;;
57247;SDS011;55809;46.618;10.764;2023-12-20T11:44:31;0.15;;;0.08;;
57247;SDS011;55809;46.618;10.764;2023-12-20T11:46:59;0.10;;;0.10;;
57247;SDS011;55809;46.618;10.764;2023-12-20T11:49:26;0.00;;;0.00;;
57247;SDS011;55809;46.618;10.764;2023-12-20T11:51:56;0.30;;;0.10;;
57247;SDS011;55809;46.618;10.764;2023-12-20T11:54:23;0.80;;;0.20;;
57247;SDS011;55809;46.618;10.764;2023-12-20T11:56:51;0.30;;;0.05;;
57247;SDS011;55809;46.618;10.764;2023-12-20T11:59:18;0.82;;;0.20;;
57247;SDS011;55809;46.618;10.764;2023-12-20T12:01:48;1.63;;;0.10;;
57247;SDS011;55809;46.618;10.764;2023-12-20T12:06:43;0.20;;;0.00;;
57247;SDS011;55809;46.618;10.764;2023-12-20T12:09:11;0.45;;;0.10;;
57247;SDS011;55809;46.618;10.764;2023-12-20T12:11:38;0.08;;;0.08;;
57247;SDS011;55809;46.618;10.764;2023-12-20T12:14:07;3.75;;;0.55;;
57247;SDS011;55809;46.618;10.764;2023-12-20T12:16:34;0.25;;;0.10;;
57247;SDS011;55809;46.618;10.764;2023-12-20T12:19:01;0.57;;;0.13;;
57247;SDS011;55809;46.618;10.764;2023-12-20T12:21:29;1.88;;;0.20;;
57247;SDS011;55809;46.618;10.764;2023-12-20T12:24:05;0.20;;;0.10;;
57247;SDS011;55809;46.618;10.764;2023-12-20T12:26:33;0.75;;;0.10;;
57247;SDS011;55809;46.618;10.764;2023-12-20T12:29:00;0.35;;;0.10;;
57247;SDS011;55809;46.618;10.764;2023-12-20T12:31:29;1.38;;;0.22;;
57247;SDS011;55809;46.618;10.764;2023-12-20T12:33:56;0.08;;;0.00;;
57247;SDS011;55809;46.618;10.764;2023-12-20T12:36:23;0.20;;;0.10;;
57247;SDS011;55809;46.618;10.764;2023-12-20T12:38:51;0.20;;;0.08;;
57247;SDS011;55809;46.618;10.764;2023-12-20T12:41:18;0.90;;;0.22;;
57247;SDS011;55809;46.618;10.764;2023-12-20T12:43:45;0.30;;;0.10;;
57247;SDS011;55809;46.618;10.764;2023-12-20T12:46:12;0.20;;;0.00;;
57247;SDS011;55809;46.618;10.764;2023-12-20T12:48:40;0.00;;;0.00;;
57247;SDS011;55809;46.618;10.764;2023-12-20T12:51:07;0.60;;;0.10;;
57247;SDS011;55809;46.618;10.764;2023-12-20T12:56:05;0.70;;;0.20;;
57247;SDS011;55809;46.618;10.764;2023-12-20T12:58:32;0.05;;;0.00;;
57247;SDS011;55809;46.618;10.764;2023-12-20T13:00:59;0.13;;;0.08;;
57247;SDS011;55809;46.618;10.764;2023-12-20T13:03:26;0.55;;;0.30;;
57247;SDS011;55809;46.618;10.764;2023-12-20T13:05:55;0.43;;;0.00;;
57247;SDS011;55809;46.618;10.764;2023-12-20T13:08:22;1.48;;;0.20;;
57247;SDS011;55809;46.618;10.764;2023-12-20T13:10:50;0.43;;;0.10;;
57247;SDS011;55809;46.618;10.764;2023-12-20T13:13:17;0.08;;;0.00;;
57247;SDS011;55809;46.618;10.764;2023-12-20T13:15:44;1.08;;;0.10;;
57247;SDS011;55809;46.618;10.764;2023-12-20T13:18:15;0.50;;;0.15;;
57247;SDS011;55809;46.618;10.764;2023-12-20T13:20:43;0.30;;;0.10;;
57247;SDS011;55809;46.618;10.764;2023-12-20T13:23:11;0.80;;;0.10;;
57247;SDS011;55809;46.618;10.764;2023-12-20T13:25:39;0.75;;;0.03;;
57247;SDS011;55809;46.618;10.764;2023-12-20T13:28:06;0.25;;;0.10;;
57247;SDS011;55809;46.618;10.764;2023-12-20T13:30:33;0.08;;;0.08;;
57247;SDS011;55809;46.618;10.764;2023-12-20T13:33:00;0.55;;;0.00;;
57247;SDS011;55809;46.618;10.764;2023-12-20T13:35:26;0.10;;;0.10;;
57247;SDS011;55809;46.618;10.764;2023-12-20T13:37:53;1.05;;;0.20;;
57247;SDS011;55809;46.618;10.764;2023-12-20T13:40:23;0.43;;;0.10;;
57247;SDS011;55809;46.618;10.764;2023-12-20T13:42:50;0.45;;;0.13;;
57247;SDS011;55809;46.618;10.764;2023-12-20T13:45:17;0.50;;;0.10;;
57247;SDS011;55809;46.618;10.764;2023-12-20T13:47:44;0.60;;;0.20;;
57247;SDS011;55809;46.618;10.764;2023-12-20T13:50:11;0.55;;;0.08;;
57247;SDS011;55809;46.618;10.764;2023-12-20T13:52:38;0.30;;;0.15;;
57247;SDS011;55809;46.618;10.764;2023-12-20T13:55:05;0.00;;;0.00;;
57247;SDS011;55809;46.618;10.764;2023-12-20T13:57:35;0.20;;;0.10;;
57247;SDS011;55809;46.618;10.764;2023-12-20T14:02:38;0.85;;;0.20;;
57247;SDS011;55809;46.618;10.764;2023-12-20T14:05:05;0.10;;;0.10;;
57247;SDS011;55809;46.618;10.764;2023-12-20T14:07:33;1.23;;;0.20;;
57247;SDS011;55809;46.618;10.764;2023-12-20T14:09:59;0.30;;;0.13;;
57247;SDS011;55809;46.618;10.764;2023-12-20T14:12:26;0.30;;;0.10;;
57247;SDS011;55809;46.618;10.764;2023-12-20T14:14:55;0.28;;;0.17;;
57247;SDS011;55809;46.618;10.764;2023-12-20T14:17:22;0.00;;;0.00;;
57247;SDS011;55809;46.618;10.764;2023-12-20T14:19:49;0.73;;;0.13;;
57247;SDS011;55809;46.618;10.764;2023-12-20T14:22:16;0.10;;;0.10;;
57247;SDS011;55809;46.618;10.764;2023-12-20T14:24:43;0.75;;;0.10;;
57247;SDS011;55809;46.618;10.764;2023-12-20T14:27:11;0.08;;;0.00;;
57247;SDS011;55809;46.618;10.764;2023-12-20T14:29:38;0.10;;;0.08;;
57247;SDS011;55809;46.618;10.764;2023-12-20T14:32:07;0.00;;;0.00;;
57247;SDS011;55809;46.618;10.764;2023-12-20T14:34:34;0.55;;;0.13;;
57247;SDS011;55809;46.618;10.764;2023-12-20T14:37:01;0.10;;;0.10;;
57247;SDS011;55809;46.618;10.764;2023-12-20T14:39:29;0.10;;;0.00;;
57247;SDS011;55809;46.618;10.764;2023-12-20T14:41:55;0.20;;;0.10;;
57247;SDS011;55809;46.618;10.764;2023-12-20T14:44:22;0.65;;;0.00;;
57247;SDS011;55809;46.618;10.764;2023-12-20T14:46:50;1.27;;;0.10;;
57247;SDS011;55809;46.618;10.764;2023-12-20T14:49:18;0.03;;;0.00;;
57247;SDS011;55809;46.618;10.764;2023-12-20T14:51:45;0.43;;;0.10;;
57247;SDS011;55809;46.618;10.764;2023-12-20T14:54:13;0.55;;;0.10;;
57247;SDS011;55809;46.618;10.764;2023-12-20T14:56:40;0.63;;;0.15;;
57247;SDS011;55809;46.618;10.764;2023-12-20T14:59:08;0.30;;;0.20;;
57247;SDS011;55809;46.618;10.764;2023-12-20T15:01:35;0.00;;;0.00;;
57247;SDS011;55809;46.618;10.764;2023-12-20T15:04:02;0.47;;;0.10;;
57247;SDS011;55809;46.618;10.764;2023-12-20T15:06:31;0.32;;;0.10;;
57247;SDS011;55809;46.618;10.764;2023-12-20T15:08:58;0.20;;;0.10;;
57247;SDS011;55809;46.618;10.764;2023-12-20T15:11:27;0.00;;;0.00;;